sensor_id;sensor_type;location;lat;lon;timestamp;P1;durP1;ratioP1;P2;durP2;ratioP2
7154;SDS011;3619;53.784;10.440;2022-07-17T00:02:29;1.70;;;1.70;;
7154;SDS011;3619;53.784;10.440;2022-07-17T00:05:01;1.77;;;1.77;;
7154;SDS011;3619;53.784;10.440;2022-07-17T00:07:30;1.67;;;1.67;;
7154;SDS011;3619;53.784;10.440;2022-07-17T00:10:08;1.70;;;1.70;;
7154;SDS011;3619;53.784;10.440;2022-07-17T00:12:36;1.50;;;1.50;;
7154;SDS011;3619;53.784;10.440;2022-07-17T00:15:11;1.30;;;1.30;;
7154;SDS011;3619;53.784;10.440;2022-07-17T00:17:39;1.63;;;1.63;;
7154;SDS011;3619;53.784;10.440;2022-07-17T00:20:12;1.60;;;1.60;;
7154;SDS011;3619;53.784;10.440;2022-07-17T00:22:44;1.70;;;1.70;;
7154;SDS011;3619;53.784;10.440;2022-07-17T00:25:13;1.60;;;1.60;;
7154;SDS011;3619;53.784;10.440;2022-07-17T00:27:42;1.50;;;1.50;;
7154;SDS011;3619;53.784;10.440;2022-07-17T00:30:11;1.53;;;1.53;;
7154;SDS011;3619;53.784;10.440;2022-07-17T00:32:38;1.53;;;1.53;;
7154;SDS011;3619;53.784;10.440;2022-07-17T00:35:21;2.33;;;2.23;;
7154;SDS011;3619;53.784;10.440;2022-07-17T00:37:49;1.60;;;1.60;;
7154;SDS011;3619;53.784;10.440;2022-07-17T00:40:21;1.57;;;1.57;;
7154;SDS011;3619;53.784;10.440;2022-07-17T00:42:53;1.50;;;1.50;;
7154;SDS011;3619;53.784;10.440;2022-07-17T00:45:22;1.70;;;1.70;;
7154;SDS011;3619;53.784;10.440;2022-07-17T00:47:56;1.70;;;1.70;;
7154;SDS011;3619;53.784;10.440;2022-07-17T00:50:32;2.00;;;1.90;;
7154;SDS011;3619;53.784;10.440;2022-07-17T00:53:01;2.10;;;2.00;;
7154;SDS011;3619;53.784;10.440;2022-07-17T00:55:31;1.90;;;1.83;;
7154;SDS011;3619;53.784;10.440;2022-07-17T00:58:19;2.00;;;1.90;;
7154;SDS011;3619;53.784;10.440;2022-07-17T01:00:53;2.00;;;1.90;;
7154;SDS011;3619;53.784;10.440;2022-07-17T01:03:22;1.60;;;1.60;;
7154;SDS011;3619;53.784;10.440;2022-07-17T01:05:57;2.10;;;2.00;;
7154;SDS011;3619;53.784;10.440;2022-07-17T01:08:28;1.93;;;1.87;;
7154;SDS011;3619;53.784;10.440;2022-07-17T01:11:10;1.60;;;1.60;;
7154;SDS011;3619;53.784;10.440;2022-07-17T01:13:38;1.60;;;1.60;;
7154;SDS011;3619;53.784;10.440;2022-07-17T01:16:06;1.50;;;1.50;;
7154;SDS011;3619;53.784;10.440;2022-07-17T01:18:49;1.70;;;1.70;;
7154;SDS011;3619;53.784;10.440;2022-07-17T01:21:21;1.70;;;1.70;;
7154;SDS011;3619;53.784;10.440;2022-07-17T01:23:48;1.80;;;1.80;;
7154;SDS011;3619;53.784;10.440;2022-07-17T01:26:16;2.00;;;1.90;;
7154;SDS011;3619;53.784;10.440;2022-07-17T01:28:47;1.43;;;1.43;;
7154;SDS011;3619;53.784;10.440;2022-07-17T01:31:15;1.63;;;1.63;;
7154;SDS011;3619;53.784;10.440;2022-07-17T01:33:42;1.67;;;1.67;;
7154;SDS011;3619;53.784;10.440;2022-07-17T01:36:10;2.00;;;1.90;;
7154;SDS011;3619;53.784;10.440;2022-07-17T01:38:43;2.00;;;1.90;;
7154;SDS011;3619;53.784;10.440;2022-07-17T01:41:10;2.07;;;1.97;;
7154;SDS011;3619;53.784;10.440;2022-07-17T01:43:38;2.03;;;1.93;;
7154;SDS011;3619;53.784;10.440;2022-07-17T01:46:06;2.47;;;2.37;;
7154;SDS011;3619;53.784;10.440;2022-07-17T01:48:34;2.80;;;2.70;;
7154;SDS011;3619;53.784;10.440;2022-07-17T01:51:03;2.20;;;2.10;;
7154;SDS011;3619;53.784;10.440;2022-07-17T01:53:39;1.93;;;1.90;;
7154;SDS011;3619;53.784;10.440;2022-07-17T01:56:08;2.13;;;2.03;;
7154;SDS011;3619;53.784;10.440;2022-07-17T01:58:39;12.77;;;4.80;;
7154;SDS011;3619;53.784;10.440;2022-07-17T02:01:06;2.27;;;2.17;;
7154;SDS011;3619;53.784;10.440;2022-07-17T02:03:33;2.40;;;2.30;;
7154;SDS011;3619;53.784;10.440;2022-07-17T02:06:01;2.30;;;2.20;;
7154;SDS011;3619;53.784;10.440;2022-07-17T02:08:29;2.30;;;2.20;;
7154;SDS011;3619;53.784;10.440;2022-07-17T02:11:08;2.10;;;2.00;;
7154;SDS011;3619;53.784;10.440;2022-07-17T02:13:36;2.03;;;1.93;;
7154;SDS011;3619;53.784;10.440;2022-07-17T02:16:03;2.17;;;2.07;;
7154;SDS011;3619;53.784;10.440;2022-07-17T02:18:32;2.40;;;2.30;;
7154;SDS011;3619;53.784;10.440;2022-07-17T02:21:03;2.23;;;2.13;;
7154;SDS011;3619;53.784;10.440;2022-07-17T02:23:31;1.97;;;1.90;;
7154;SDS011;3619;53.784;10.440;2022-07-17T02:25:59;1.70;;;1.70;;
7154;SDS011;3619;53.784;10.440;2022-07-17T02:28:28;2.10;;;2.00;;
7154;SDS011;3619;53.784;10.440;2022-07-17T02:30:56;1.87;;;1.83;;
7154;SDS011;3619;53.784;10.440;2022-07-17T02:33:23;1.87;;;1.83;;
7154;SDS011;3619;53.784;10.440;2022-07-17T02:35:51;1.93;;;1.90;;
7154;SDS011;3619;53.784;10.440;2022-07-17T02:38:19;1.97;;;1.87;;
7154;SDS011;3619;53.784;10.440;2022-07-17T02:40:46;1.87;;;1.83;;
7154;SDS011;3619;53.784;10.440;2022-07-17T02:43:14;1.97;;;1.87;;
7154;SDS011;3619;53.784;10.440;2022-07-17T02:45:46;2.30;;;2.20;;
7154;SDS011;3619;53.784;10.440;2022-07-17T02:48:14;2.20;;;2.10;;
7154;SDS011;3619;53.784;10.440;2022-07-17T02:50:42;2.03;;;1.93;;
7154;SDS011;3619;53.784;10.440;2022-07-17T02:53:10;2.00;;;1.90;;
7154;SDS011;3619;53.784;10.440;2022-07-17T02:55:42;2.00;;;1.90;;
7154;SDS011;3619;53.784;10.440;2022-07-17T02:58:13;2.30;;;2.20;;
7154;SDS011;3619;53.784;10.440;2022-07-17T03:00:42;2.07;;;1.97;;
7154;SDS011;3619;53.784;10.440;2022-07-17T03:03:21;2.07;;;1.97;;
7154;SDS011;3619;53.784;10.440;2022-07-17T03:05:48;1.97;;;1.90;;
7154;SDS011;3619;53.784;10.440;2022-07-17T03:08:16;1.97;;;1.90;;
7154;SDS011;3619;53.784;10.440;2022-07-17T03:10:43;2.00;;;1.90;;
7154;SDS011;3619;53.784;10.440;2022-07-17T03:13:11;2.00;;;1.90;;
7154;SDS011;3619;53.784;10.440;2022-07-17T03:15:38;2.20;;;2.10;;
7154;SDS011;3619;53.784;10.440;2022-07-17T03:18:16;2.00;;;1.90;;
7154;SDS011;3619;53.784;10.440;2022-07-17T03:20:48;1.70;;;1.70;;
7154;SDS011;3619;53.784;10.440;2022-07-17T03:23:17;1.60;;;1.60;;
7154;SDS011;3619;53.784;10.440;2022-07-17T03:25:45;1.77;;;1.77;;
7154;SDS011;3619;53.784;10.440;2022-07-17T03:28:14;4.50;;;1.90;;
7154;SDS011;3619;53.784;10.440;2022-07-17T03:30:42;1.70;;;1.70;;
7154;SDS011;3619;53.784;10.440;2022-07-17T03:33:13;1.40;;;1.40;;
7154;SDS011;3619;53.784;10.440;2022-07-17T03:35:41;2.97;;;2.50;;
7154;SDS011;3619;53.784;10.440;2022-07-17T03:38:08;1.40;;;1.40;;
7154;SDS011;3619;53.784;10.440;2022-07-17T03:40:50;1.73;;;1.73;;
7154;SDS011;3619;53.784;10.440;2022-07-17T03:43:18;1.53;;;1.53;;
7154;SDS011;3619;53.784;10.440;2022-07-17T03:45:46;1.50;;;1.50;;
7154;SDS011;3619;53.784;10.440;2022-07-17T03:48:17;1.50;;;1.50;;
7154;SDS011;3619;53.784;10.440;2022-07-17T03:50:45;1.40;;;1.40;;
7154;SDS011;3619;53.784;10.440;2022-07-17T03:53:14;11.73;;;2.33;;
7154;SDS011;3619;53.784;10.440;2022-07-17T03:55:41;1.50;;;1.50;;
7154;SDS011;3619;53.784;10.440;2022-07-17T03:58:09;1.57;;;1.57;;
7154;SDS011;3619;53.784;10.440;2022-07-17T04:00:39;1.40;;;1.40;;
7154;SDS011;3619;53.784;10.440;2022-07-17T04:03:07;1.60;;;1.60;;
7154;SDS011;3619;53.784;10.440;2022-07-17T04:05:39;1.40;;;1.40;;
7154;SDS011;3619;53.784;10.440;2022-07-17T04:08:09;1.53;;;1.53;;
7154;SDS011;3619;53.784;10.440;2022-07-17T04:10:37;1.60;;;1.60;;
7154;SDS011;3619;53.784;10.440;2022-07-17T04:13:05;1.83;;;1.73;;
7154;SDS011;3619;53.784;10.440;2022-07-17T04:15:37;1.73;;;1.73;;
7154;SDS011;3619;53.784;10.440;2022-07-17T04:18:18;3.70;;;3.40;;
7154;SDS011;3619;53.784;10.440;2022-07-17T04:20:52;11.53;;;3.10;;
7154;SDS011;3619;53.784;10.440;2022-07-17T04:23:20;1.80;;;1.80;;
7154;SDS011;3619;53.784;10.440;2022-07-17T04:25:50;1.70;;;1.70;;
7154;SDS011;3619;53.784;10.440;2022-07-17T04:28:18;1.50;;;1.50;;
7154;SDS011;3619;53.784;10.440;2022-07-17T04:30:46;1.73;;;1.73;;
7154;SDS011;3619;53.784;10.440;2022-07-17T04:33:15;1.53;;;1.53;;
7154;SDS011;3619;53.784;10.440;2022-07-17T04:35:44;1.60;;;1.60;;
7154;SDS011;3619;53.784;10.440;2022-07-17T04:38:13;2.90;;;2.80;;
7154;SDS011;3619;53.784;10.440;2022-07-17T04:40:51;1.60;;;1.60;;
7154;SDS011;3619;53.784;10.440;2022-07-17T04:43:19;1.57;;;1.57;;
7154;SDS011;3619;53.784;10.440;2022-07-17T04:45:47;1.40;;;1.40;;
7154;SDS011;3619;53.784;10.440;2022-07-17T04:48:17;1.60;;;1.60;;
7154;SDS011;3619;53.784;10.440;2022-07-17T04:50:45;1.80;;;1.80;;
7154;SDS011;3619;53.784;10.440;2022-07-17T04:53:17;1.80;;;1.80;;
7154;SDS011;3619;53.784;10.440;2022-07-17T04:55:45;1.50;;;1.50;;
7154;SDS011;3619;53.784;10.440;2022-07-17T04:58:12;1.67;;;1.67;;
7154;SDS011;3619;53.784;10.440;2022-07-17T05:00:41;1.77;;;1.77;;
7154;SDS011;3619;53.784;10.440;2022-07-17T05:03:09;1.80;;;1.80;;
7154;SDS011;3619;53.784;10.440;2022-07-17T05:05:36;1.67;;;1.67;;
7154;SDS011;3619;53.784;10.440;2022-07-17T05:08:11;1.47;;;1.47;;
7154;SDS011;3619;53.784;10.440;2022-07-17T05:10:44;1.63;;;1.63;;
7154;SDS011;3619;53.784;10.440;2022-07-17T05:13:12;1.87;;;1.83;;
7154;SDS011;3619;53.784;10.440;2022-07-17T05:15:47;1.50;;;1.50;;
7154;SDS011;3619;53.784;10.440;2022-07-17T05:18:15;2.00;;;1.90;;
7154;SDS011;3619;53.784;10.440;2022-07-17T05:20:42;2.13;;;2.03;;
7154;SDS011;3619;53.784;10.440;2022-07-17T05:23:10;1.70;;;1.70;;
7154;SDS011;3619;53.784;10.440;2022-07-17T05:25:39;2.47;;;2.37;;
7154;SDS011;3619;53.784;10.440;2022-07-17T05:28:08;2.10;;;2.00;;
7154;SDS011;3619;53.784;10.440;2022-07-17T05:30:37;1.63;;;1.63;;
7154;SDS011;3619;53.784;10.440;2022-07-17T05:33:06;1.70;;;1.70;;
7154;SDS011;3619;53.784;10.440;2022-07-17T05:35:34;1.60;;;1.60;;
7154;SDS011;3619;53.784;10.440;2022-07-17T05:38:02;3.33;;;3.10;;
7154;SDS011;3619;53.784;10.440;2022-07-17T05:40:32;2.00;;;1.90;;
7154;SDS011;3619;53.784;10.440;2022-07-17T05:43:02;13.23;;;4.40;;
7154;SDS011;3619;53.784;10.440;2022-07-17T05:45:34;1.83;;;1.80;;
7154;SDS011;3619;53.784;10.440;2022-07-17T05:48:05;1.70;;;1.70;;
7154;SDS011;3619;53.784;10.440;2022-07-17T05:50:33;1.87;;;1.83;;
7154;SDS011;3619;53.784;10.440;2022-07-17T05:53:04;1.60;;;1.60;;
7154;SDS011;3619;53.784;10.440;2022-07-17T05:55:32;1.73;;;1.73;;
7154;SDS011;3619;53.784;10.440;2022-07-17T05:58:00;1.73;;;1.70;;
7154;SDS011;3619;53.784;10.440;2022-07-17T06:00:33;2.00;;;1.90;;
7154;SDS011;3619;53.784;10.440;2022-07-17T06:03:01;1.90;;;1.80;;
7154;SDS011;3619;53.784;10.440;2022-07-17T06:05:29;2.23;;;2.13;;
7154;SDS011;3619;53.784;10.440;2022-07-17T06:07:57;1.50;;;1.50;;
7154;SDS011;3619;53.784;10.440;2022-07-17T06:10:29;1.53;;;1.53;;
7154;SDS011;3619;53.784;10.440;2022-07-17T06:12:58;1.50;;;1.50;;
7154;SDS011;3619;53.784;10.440;2022-07-17T06:15:25;1.40;;;1.40;;
7154;SDS011;3619;53.784;10.440;2022-07-17T06:17:54;2.50;;;2.20;;
7154;SDS011;3619;53.784;10.440;2022-07-17T06:20:22;1.60;;;1.60;;
7154;SDS011;3619;53.784;10.440;2022-07-17T06:22:49;1.60;;;1.60;;
7154;SDS011;3619;53.784;10.440;2022-07-17T06:25:17;1.60;;;1.60;;
7154;SDS011;3619;53.784;10.440;2022-07-17T06:27:44;1.13;;;1.13;;
7154;SDS011;3619;53.784;10.440;2022-07-17T06:30:13;1.37;;;1.37;;
7154;SDS011;3619;53.784;10.440;2022-07-17T06:32:42;1.57;;;1.57;;
7154;SDS011;3619;53.784;10.440;2022-07-17T06:35:12;6.20;;;2.83;;
7154;SDS011;3619;53.784;10.440;2022-07-17T06:37:43;1.40;;;1.40;;
7154;SDS011;3619;53.784;10.440;2022-07-17T06:40:13;1.00;;;1.00;;
7154;SDS011;3619;53.784;10.440;2022-07-17T06:42:40;1.23;;;1.23;;
7154;SDS011;3619;53.784;10.440;2022-07-17T06:45:08;1.10;;;1.10;;
7154;SDS011;3619;53.784;10.440;2022-07-17T06:47:37;1.13;;;1.13;;
7154;SDS011;3619;53.784;10.440;2022-07-17T06:50:05;1.10;;;1.10;;
7154;SDS011;3619;53.784;10.440;2022-07-17T06:52:36;1.93;;;1.83;;
7154;SDS011;3619;53.784;10.440;2022-07-17T06:55:04;1.47;;;1.37;;
7154;SDS011;3619;53.784;10.440;2022-07-17T06:57:34;1.27;;;1.27;;
7154;SDS011;3619;53.784;10.440;2022-07-17T07:00:03;1.40;;;1.30;;
7154;SDS011;3619;53.784;10.440;2022-07-17T07:02:33;1.00;;;1.00;;
7154;SDS011;3619;53.784;10.440;2022-07-17T07:05:18;1.10;;;1.10;;
7154;SDS011;3619;53.784;10.440;2022-07-17T07:07:52;1.00;;;1.00;;
7154;SDS011;3619;53.784;10.440;2022-07-17T07:10:27;1.00;;;1.00;;
7154;SDS011;3619;53.784;10.440;2022-07-17T07:12:57;1.13;;;1.13;;
7154;SDS011;3619;53.784;10.440;2022-07-17T07:15:29;1.10;;;1.10;;
7154;SDS011;3619;53.784;10.440;2022-07-17T07:17:56;1.30;;;1.30;;
7154;SDS011;3619;53.784;10.440;2022-07-17T07:20:25;1.00;;;1.00;;
7154;SDS011;3619;53.784;10.440;2022-07-17T07:22:55;1.20;;;1.20;;
7154;SDS011;3619;53.784;10.440;2022-07-17T07:25:24;1.03;;;1.03;;
7154;SDS011;3619;53.784;10.440;2022-07-17T07:27:52;1.37;;;1.37;;
7154;SDS011;3619;53.784;10.440;2022-07-17T07:30:19;1.20;;;1.20;;
7154;SDS011;3619;53.784;10.440;2022-07-17T07:32:47;3.07;;;2.80;;
7154;SDS011;3619;53.784;10.440;2022-07-17T07:35:16;1.53;;;1.43;;
7154;SDS011;3619;53.784;10.440;2022-07-17T07:37:46;1.17;;;1.17;;
7154;SDS011;3619;53.784;10.440;2022-07-17T07:40:18;1.50;;;1.40;;
7154;SDS011;3619;53.784;10.440;2022-07-17T07:42:46;1.07;;;1.07;;
7154;SDS011;3619;53.784;10.440;2022-07-17T07:45:21;0.90;;;0.90;;
7154;SDS011;3619;53.784;10.440;2022-07-17T07:47:49;0.80;;;0.80;;
7154;SDS011;3619;53.784;10.440;2022-07-17T07:50:19;1.37;;;1.13;;
7154;SDS011;3619;53.784;10.440;2022-07-17T07:52:49;1.10;;;1.10;;
7154;SDS011;3619;53.784;10.440;2022-07-17T07:55:25;0.70;;;0.70;;
7154;SDS011;3619;53.784;10.440;2022-07-17T07:58:01;1.10;;;1.10;;
7154;SDS011;3619;53.784;10.440;2022-07-17T08:00:31;1.50;;;1.07;;
7154;SDS011;3619;53.784;10.440;2022-07-17T08:03:09;1.33;;;0.97;;
7154;SDS011;3619;53.784;10.440;2022-07-17T08:05:36;0.70;;;0.70;;
7154;SDS011;3619;53.784;10.440;2022-07-17T08:08:04;0.57;;;0.57;;
7154;SDS011;3619;53.784;10.440;2022-07-17T08:13:24;0.70;;;0.70;;
7154;SDS011;3619;53.784;10.440;2022-07-17T08:15:54;0.90;;;0.90;;
7154;SDS011;3619;53.784;10.440;2022-07-17T08:18:24;0.60;;;0.60;;
7154;SDS011;3619;53.784;10.440;2022-07-17T08:20:55;1.13;;;0.80;;
7154;SDS011;3619;53.784;10.440;2022-07-17T08:23:26;0.63;;;0.63;;
7154;SDS011;3619;53.784;10.440;2022-07-17T08:25:56;0.60;;;0.60;;
7154;SDS011;3619;53.784;10.440;2022-07-17T08:28:23;20.03;;;0.83;;
7154;SDS011;3619;53.784;10.440;2022-07-17T08:30:51;0.70;;;0.70;;
7154;SDS011;3619;53.784;10.440;2022-07-17T08:33:18;0.67;;;0.67;;
7154;SDS011;3619;53.784;10.440;2022-07-17T08:35:53;1.77;;;1.00;;
7154;SDS011;3619;53.784;10.440;2022-07-17T08:38:21;0.70;;;0.70;;
7154;SDS011;3619;53.784;10.440;2022-07-17T08:40:48;0.50;;;0.50;;
7154;SDS011;3619;53.784;10.440;2022-07-17T08:43:20;0.70;;;0.70;;
7154;SDS011;3619;53.784;10.440;2022-07-17T08:45:48;0.80;;;0.80;;
7154;SDS011;3619;53.784;10.440;2022-07-17T08:48:17;0.70;;;0.70;;
7154;SDS011;3619;53.784;10.440;2022-07-17T08:50:46;0.60;;;0.60;;
7154;SDS011;3619;53.784;10.440;2022-07-17T08:53:14;0.60;;;0.60;;
7154;SDS011;3619;53.784;10.440;2022-07-17T08:55:41;0.83;;;0.80;;
7154;SDS011;3619;53.784;10.440;2022-07-17T08:58:13;1.03;;;1.03;;
7154;SDS011;3619;53.784;10.440;2022-07-17T09:00:44;8.43;;;1.17;;
7154;SDS011;3619;53.784;10.440;2022-07-17T09:03:15;0.60;;;0.60;;
7154;SDS011;3619;53.784;10.440;2022-07-17T09:05:48;0.70;;;0.70;;
7154;SDS011;3619;53.784;10.440;2022-07-17T09:08:21;0.70;;;0.70;;
7154;SDS011;3619;53.784;10.440;2022-07-17T09:10:50;1.20;;;1.10;;
7154;SDS011;3619;53.784;10.440;2022-07-17T09:13:21;0.90;;;0.90;;
7154;SDS011;3619;53.784;10.440;2022-07-17T09:15:56;0.63;;;0.63;;
7154;SDS011;3619;53.784;10.440;2022-07-17T09:18:26;0.90;;;0.90;;
7154;SDS011;3619;53.784;10.440;2022-07-17T09:20:54;0.87;;;0.87;;
7154;SDS011;3619;53.784;10.440;2022-07-17T09:23:24;0.70;;;0.70;;
7154;SDS011;3619;53.784;10.440;2022-07-17T09:25:53;0.90;;;0.90;;
7154;SDS011;3619;53.784;10.440;2022-07-17T09:28:24;0.60;;;0.60;;
7154;SDS011;3619;53.784;10.440;2022-07-17T09:30:54;1.43;;;1.37;;
7154;SDS011;3619;53.784;10.440;2022-07-17T09:33:24;1.37;;;1.37;;
7154;SDS011;3619;53.784;10.440;2022-07-17T09:35:54;0.70;;;0.70;;
7154;SDS011;3619;53.784;10.440;2022-07-17T09:38:26;1.10;;;1.10;;
7154;SDS011;3619;53.784;10.440;2022-07-17T09:41:03;0.70;;;0.70;;
7154;SDS011;3619;53.784;10.440;2022-07-17T09:43:44;0.70;;;0.70;;
7154;SDS011;3619;53.784;10.440;2022-07-17T09:46:20;0.80;;;0.80;;
7154;SDS011;3619;53.784;10.440;2022-07-17T09:48:51;3.10;;;1.77;;
7154;SDS011;3619;53.784;10.440;2022-07-17T09:51:28;1.20;;;1.20;;
7154;SDS011;3619;53.784;10.440;2022-07-17T09:54:03;1.10;;;1.10;;
7154;SDS011;3619;53.784;10.440;2022-07-17T09:56:34;2.20;;;1.73;;
7154;SDS011;3619;53.784;10.440;2022-07-17T09:59:06;1.20;;;1.20;;
7154;SDS011;3619;53.784;10.440;2022-07-17T10:01:38;0.90;;;0.90;;
7154;SDS011;3619;53.784;10.440;2022-07-17T10:04:07;1.67;;;1.50;;
7154;SDS011;3619;53.784;10.440;2022-07-17T10:06:36;1.67;;;1.57;;
7154;SDS011;3619;53.784;10.440;2022-07-17T10:09:04;1.20;;;1.20;;
7154;SDS011;3619;53.784;10.440;2022-07-17T10:11:35;1.30;;;1.30;;
7154;SDS011;3619;53.784;10.440;2022-07-17T10:14:08;4.27;;;1.43;;
7154;SDS011;3619;53.784;10.440;2022-07-17T10:16:39;1.10;;;1.10;;
7154;SDS011;3619;53.784;10.440;2022-07-17T10:19:17;1.20;;;1.20;;
7154;SDS011;3619;53.784;10.440;2022-07-17T10:21:53;1.10;;;1.10;;
7154;SDS011;3619;53.784;10.440;2022-07-17T10:24:27;1.17;;;1.17;;
7154;SDS011;3619;53.784;10.440;2022-07-17T10:26:58;1.33;;;1.23;;
7154;SDS011;3619;53.784;10.440;2022-07-17T10:29:35;0.57;;;0.57;;
7154;SDS011;3619;53.784;10.440;2022-07-17T10:32:08;0.50;;;0.50;;
7154;SDS011;3619;53.784;10.440;2022-07-17T10:34:48;0.50;;;0.50;;
7154;SDS011;3619;53.784;10.440;2022-07-17T10:37:37;0.80;;;0.80;;
7154;SDS011;3619;53.784;10.440;2022-07-17T10:40:06;1.07;;;0.73;;
7154;SDS011;3619;53.784;10.440;2022-07-17T10:42:50;0.70;;;0.70;;
7154;SDS011;3619;53.784;10.440;2022-07-17T10:45:31;0.90;;;0.90;;
7154;SDS011;3619;53.784;10.440;2022-07-17T10:48:06;0.80;;;0.80;;
7154;SDS011;3619;53.784;10.440;2022-07-17T10:50:35;0.50;;;0.50;;
7154;SDS011;3619;53.784;10.440;2022-07-17T10:53:05;0.87;;;0.87;;
7154;SDS011;3619;53.784;10.440;2022-07-17T10:55:47;1.00;;;1.00;;
7154;SDS011;3619;53.784;10.440;2022-07-17T10:58:17;0.83;;;0.83;;
7154;SDS011;3619;53.784;10.440;2022-07-17T11:00:56;0.60;;;0.60;;
7154;SDS011;3619;53.784;10.440;2022-07-17T11:03:31;0.80;;;0.80;;
7154;SDS011;3619;53.784;10.440;2022-07-17T11:06:08;0.73;;;0.73;;
7154;SDS011;3619;53.784;10.440;2022-07-17T11:08:42;0.60;;;0.60;;
7154;SDS011;3619;53.784;10.440;2022-07-17T11:11:11;0.60;;;0.60;;
7154;SDS011;3619;53.784;10.440;2022-07-17T11:13:42;1.23;;;1.23;;
7154;SDS011;3619;53.784;10.440;2022-07-17T11:16:11;1.63;;;1.13;;
7154;SDS011;3619;53.784;10.440;2022-07-17T11:18:46;0.60;;;0.60;;
7154;SDS011;3619;53.784;10.440;2022-07-17T11:21:15;0.60;;;0.60;;
7154;SDS011;3619;53.784;10.440;2022-07-17T11:23:49;0.60;;;0.60;;
7154;SDS011;3619;53.784;10.440;2022-07-17T11:26:30;0.97;;;0.97;;
7154;SDS011;3619;53.784;10.440;2022-07-17T11:28:57;1.13;;;1.07;;
7154;SDS011;3619;53.784;10.440;2022-07-17T11:31:27;0.70;;;0.70;;
7154;SDS011;3619;53.784;10.440;2022-07-17T11:33:57;0.70;;;0.70;;
7154;SDS011;3619;53.784;10.440;2022-07-17T11:36:27;3.60;;;1.60;;
7154;SDS011;3619;53.784;10.440;2022-07-17T11:39:06;0.53;;;0.53;;
7154;SDS011;3619;53.784;10.440;2022-07-17T11:41:40;1.30;;;1.03;;
7154;SDS011;3619;53.784;10.440;2022-07-17T11:44:11;0.60;;;0.60;;
7154;SDS011;3619;53.784;10.440;2022-07-17T11:46:41;0.50;;;0.50;;
7154;SDS011;3619;53.784;10.440;2022-07-17T11:49:22;0.67;;;0.67;;
7154;SDS011;3619;53.784;10.440;2022-07-17T11:51:57;0.50;;;0.50;;
7154;SDS011;3619;53.784;10.440;2022-07-17T11:54:25;1.93;;;1.00;;
7154;SDS011;3619;53.784;10.440;2022-07-17T11:56:55;2.00;;;1.90;;
7154;SDS011;3619;53.784;10.440;2022-07-17T11:59:24;0.80;;;0.80;;
7154;SDS011;3619;53.784;10.440;2022-07-17T12:02:06;0.67;;;0.67;;
7154;SDS011;3619;53.784;10.440;2022-07-17T12:04:47;0.60;;;0.60;;
7154;SDS011;3619;53.784;10.440;2022-07-17T12:07:18;0.50;;;0.50;;
7154;SDS011;3619;53.784;10.440;2022-07-17T12:09:53;0.60;;;0.60;;
7154;SDS011;3619;53.784;10.440;2022-07-17T12:12:22;0.83;;;0.83;;
7154;SDS011;3619;53.784;10.440;2022-07-17T12:14:56;1.37;;;1.00;;
7154;SDS011;3619;53.784;10.440;2022-07-17T12:17:25;0.83;;;0.83;;
7154;SDS011;3619;53.784;10.440;2022-07-17T12:20:06;0.60;;;0.60;;
7154;SDS011;3619;53.784;10.440;2022-07-17T12:22:41;0.80;;;0.80;;
7154;SDS011;3619;53.784;10.440;2022-07-17T12:25:10;0.60;;;0.60;;
7154;SDS011;3619;53.784;10.440;2022-07-17T12:27:48;0.73;;;0.73;;
7154;SDS011;3619;53.784;10.440;2022-07-17T12:30:16;0.63;;;0.63;;
7154;SDS011;3619;53.784;10.440;2022-07-17T12:32:46;1.67;;;1.57;;
7154;SDS011;3619;53.784;10.440;2022-07-17T12:35:54;0.60;;;0.60;;
7154;SDS011;3619;53.784;10.440;2022-07-17T12:39:01;0.50;;;0.50;;
7154;SDS011;3619;53.784;10.440;2022-07-17T12:41:30;0.70;;;0.70;;
7154;SDS011;3619;53.784;10.440;2022-07-17T12:44:00;0.50;;;0.50;;
7154;SDS011;3619;53.784;10.440;2022-07-17T12:46:28;0.60;;;0.60;;
7154;SDS011;3619;53.784;10.440;2022-07-17T12:48:56;0.70;;;0.70;;
7154;SDS011;3619;53.784;10.440;2022-07-17T12:51:31;0.70;;;0.70;;
7154;SDS011;3619;53.784;10.440;2022-07-17T12:54:01;0.50;;;0.50;;
7154;SDS011;3619;53.784;10.440;2022-07-17T12:56:28;0.60;;;0.60;;
7154;SDS011;3619;53.784;10.440;2022-07-17T12:58:56;1.43;;;0.90;;
7154;SDS011;3619;53.784;10.440;2022-07-17T13:01:23;1.70;;;0.87;;
7154;SDS011;3619;53.784;10.440;2022-07-17T13:03:52;0.90;;;0.90;;
7154;SDS011;3619;53.784;10.440;2022-07-17T13:06:21;0.80;;;0.80;;
7154;SDS011;3619;53.784;10.440;2022-07-17T13:08:50;0.57;;;0.57;;
7154;SDS011;3619;53.784;10.440;2022-07-17T13:11:17;0.60;;;0.60;;
7154;SDS011;3619;53.784;10.440;2022-07-17T13:13:45;0.67;;;0.67;;
7154;SDS011;3619;53.784;10.440;2022-07-17T13:16:16;0.80;;;0.80;;
7154;SDS011;3619;53.784;10.440;2022-07-17T13:18:43;0.63;;;0.63;;
7154;SDS011;3619;53.784;10.440;2022-07-17T13:21:11;1.07;;;0.87;;
7154;SDS011;3619;53.784;10.440;2022-07-17T13:23:42;1.03;;;0.93;;
7154;SDS011;3619;53.784;10.440;2022-07-17T13:26:13;0.60;;;0.60;;
7154;SDS011;3619;53.784;10.440;2022-07-17T13:28:45;6.40;;;0.80;;
7154;SDS011;3619;53.784;10.440;2022-07-17T13:31:29;0.50;;;0.50;;
7154;SDS011;3619;53.784;10.440;2022-07-17T13:33:57;0.60;;;0.60;;
7154;SDS011;3619;53.784;10.440;2022-07-17T13:36:25;5.90;;;1.33;;
7154;SDS011;3619;53.784;10.440;2022-07-17T13:38:52;0.60;;;0.60;;
7154;SDS011;3619;53.784;10.440;2022-07-17T13:44:09;0.97;;;0.97;;
7154;SDS011;3619;53.784;10.440;2022-07-17T13:46:38;0.60;;;0.60;;
7154;SDS011;3619;53.784;10.440;2022-07-17T13:49:10;0.50;;;0.50;;
7154;SDS011;3619;53.784;10.440;2022-07-17T13:51:38;0.50;;;0.50;;
7154;SDS011;3619;53.784;10.440;2022-07-17T13:54:06;0.50;;;0.50;;
7154;SDS011;3619;53.784;10.440;2022-07-17T13:56:35;0.50;;;0.50;;
7154;SDS011;3619;53.784;10.440;2022-07-17T13:59:08;1.50;;;1.23;;
7154;SDS011;3619;53.784;10.440;2022-07-17T14:01:38;0.60;;;0.60;;
7154;SDS011;3619;53.784;10.440;2022-07-17T14:04:14;0.57;;;0.57;;
7154;SDS011;3619;53.784;10.440;2022-07-17T14:06:41;0.70;;;0.70;;
7154;SDS011;3619;53.784;10.440;2022-07-17T14:09:10;0.60;;;0.60;;
7154;SDS011;3619;53.784;10.440;2022-07-17T14:11:38;0.53;;;0.53;;
7154;SDS011;3619;53.784;10.440;2022-07-17T14:14:14;0.50;;;0.50;;
7154;SDS011;3619;53.784;10.440;2022-07-17T14:16:41;0.60;;;0.60;;
7154;SDS011;3619;53.784;10.440;2022-07-17T14:19:11;0.60;;;0.60;;
7154;SDS011;3619;53.784;10.440;2022-07-17T14:21:41;0.60;;;0.60;;
7154;SDS011;3619;53.784;10.440;2022-07-17T14:24:09;0.50;;;0.50;;
7154;SDS011;3619;53.784;10.440;2022-07-17T14:26:38;0.80;;;0.80;;
7154;SDS011;3619;53.784;10.440;2022-07-17T14:29:07;1.63;;;1.37;;
7154;SDS011;3619;53.784;10.440;2022-07-17T14:34:02;0.53;;;0.53;;
7154;SDS011;3619;53.784;10.440;2022-07-17T14:36:33;0.60;;;0.60;;
7154;SDS011;3619;53.784;10.440;2022-07-17T14:39:00;0.60;;;0.60;;
7154;SDS011;3619;53.784;10.440;2022-07-17T14:41:28;1.40;;;1.30;;
7154;SDS011;3619;53.784;10.440;2022-07-17T14:43:56;0.60;;;0.60;;
7154;SDS011;3619;53.784;10.440;2022-07-17T14:46:24;0.87;;;0.87;;
7154;SDS011;3619;53.784;10.440;2022-07-17T14:48:54;0.80;;;0.80;;
7154;SDS011;3619;53.784;10.440;2022-07-17T14:51:23;0.67;;;0.67;;
7154;SDS011;3619;53.784;10.440;2022-07-17T14:53:51;0.60;;;0.60;;
7154;SDS011;3619;53.784;10.440;2022-07-17T14:56:19;0.50;;;0.50;;
7154;SDS011;3619;53.784;10.440;2022-07-17T14:58:46;0.60;;;0.60;;
7154;SDS011;3619;53.784;10.440;2022-07-17T15:01:34;0.67;;;0.67;;
7154;SDS011;3619;53.784;10.440;2022-07-17T15:04:04;0.80;;;0.80;;
7154;SDS011;3619;53.784;10.440;2022-07-17T15:06:33;0.60;;;0.60;;
7154;SDS011;3619;53.784;10.440;2022-07-17T15:09:11;1.10;;;1.10;;
7154;SDS011;3619;53.784;10.440;2022-07-17T15:11:38;0.60;;;0.60;;
7154;SDS011;3619;53.784;10.440;2022-07-17T15:14:06;1.10;;;1.00;;
7154;SDS011;3619;53.784;10.440;2022-07-17T15:16:35;0.73;;;0.73;;
7154;SDS011;3619;53.784;10.440;2022-07-17T15:19:04;0.60;;;0.60;;
7154;SDS011;3619;53.784;10.440;2022-07-17T15:21:37;0.50;;;0.50;;
7154;SDS011;3619;53.784;10.440;2022-07-17T15:24:05;2.70;;;1.00;;
7154;SDS011;3619;53.784;10.440;2022-07-17T15:26:32;2.07;;;1.23;;
7154;SDS011;3619;53.784;10.440;2022-07-17T15:29:01;0.70;;;0.70;;
7154;SDS011;3619;53.784;10.440;2022-07-17T15:31:28;4.13;;;0.83;;